Time,TemperatureF,DewpointF,PressureIn,WindDirection,WindDirectionDegrees,WindSpeedMPH,WindSpeedGustMPH,Humidity,HourlyPrecipIn,Conditions,Clouds,dailyrainin,SoftwareType,DateUTC
2013-01-09 00:00:00,52.0,50.9,29.91,NW,321,4.0,5.0,96,0.21,,-RA,0.55,VWS V14.01,2013-01-09 06:00:00,
2013-01-09 00:03:00,51.7,50.6,29.91,North,10,2.0,3.0,96,0.17,,RA,0.09,VWS V14.01,2013-01-09 06:03:00,
2013-01-09 00:08:00,51.7,50.6,29.91,NW,317,3.0,4.0,96,0.25,,RA,0.17,VWS V14.01,2013-01-09 06:08:00,
2013-01-09 00:10:00,51.7,50.6,29.91,NNW,330,1.0,4.0,96,0.23,,-RA,0.04,VWS V14.01,2013-01-09 06:10:00,
2013-01-09 00:13:00,51.7,50.6,29.91,North,360,0.0,3.0,96,0.32,,-RA,0.24,VWS V14.01,2013-01-09 06:13:00,
2013-01-09 00:18:00,51.7,50.6,29.92,NNE,13,1.0,3.0,96,0.36,,-RA,0.28,VWS V14.01,2013-01-09 06:18:00,
2013-01-09 00:20:00,51.7,50.6,29.91,NW,320,2.0,4.0,96,0.25,,-RA,0.17,VWS V14.01,2013-01-09 06:20:00,
2013-01-09 00:23:00,51.7,50.6,29.92,NNE,13,0.0,2.0,96,0.37,, +RA,0.29,VWS V14.01,2013-01-09 06:23:00,
2013-01-09 00:28:00,51.7,50.6,29.92,NNE,13,0.0,2.0,96,0.38,, +RA,0.30,VWS V14.01,2013-01-09 06:28:00,
2013-01-09 00:30:00,51.7,50.6,29.92,NNE,13,0.0,3.0,96,0.36,,-RA,0.28,VWS V14.01,2013-01-09 06:30:00,
2013-01-09 00:33:00,51.7,50.6,29.94,NNE,13,0.0,2.0,96,0.35,, +RA,0.31,VWS V14.01,2013-01-09 06:33:00,
2013-01-09 00:38:00,51.7,50.6,29.94,North,11,3.0,4.0,96,0.36,, +RA,0.32,VWS V14.01,2013-01-09 06:38:00,
2013-01-09 00:40:00,51.7,50.6,29.92,NNE,13,0.0,2.0,96,0.38,,-RA,0.30,VWS V14.01,2013-01-09 06:40:00,
2013-01-09 00:43:00,51.7,50.6,29.94,NNW,333,3.0,5.0,96,0.38,, +RA,0.36,VWS V14.01,2013-01-09 06:43:00,
2013-01-09 00:48:00,51.8,50.7,29.93,NNW,333,2.0,5.0,96,0.40,, +RA,0.38,VWS V14.01,2013-01-09 06:48:00,
2013-01-09 00:50:00,51.7,50.6,29.94,North,11,2.0,4.0,96,0.37,,-RA,0.33,VWS V14.01,2013-01-09 06:50:00,
2013-01-09 00:53:00,51.8,50.7,29.93,North,360,0.0,2.0,96,0.39,,RA,0.39,VWS V14.01,2013-01-09 06:53:00,
2013-01-09 00:58:00,51.8,50.7,29.93,East,86,1.0,5.0,96,0.45,,RA,0.45,VWS V14.01,2013-01-09 06:58:00,
2013-01-09 01:00:00,51.8,50.7,29.93,NNW,333,1.0,5.0,96,0.40,,-RA,0.38,VWS V14.01,2013-01-09 07:00:00,
2013-01-09 01:03:00,52.0,50.9,29.96,ENE,72,0.0,4.0,96,0.45,, +RA,0.49,VWS V14.01,2013-01-09 07:03:00,
2013-01-09 01:08:00,52.0,50.9,29.96,ENE,72,0.0,4.0,96,0.50,, +RA,0.54,VWS V14.01,2013-01-09 07:08:00,
2013-01-09 01:10:00,51.8,50.7,29.93,East,86,0.0,5.0,96,0.45,,-RA,0.45,VWS V14.01,2013-01-09 07:10:00,
2013-01-09 01:13:00,51.8,50.7,29.96,ENE,72,0.0,1.0,96,0.45,,,0.62,VWS V14.01,2013-01-09 07:13:00,
2013-01-09 01:18:00,51.8,50.7,29.95,ENE,72,0.0,2.0,96,0.49,,,0.66,VWS V14.01,2013-01-09 07:18:00,
2013-01-09 01:20:00,52.0,50.9,29.96,ENE,72,0.0,4.0,96,0.50,,-RA,0.54,VWS V14.01,2013-01-09 07:20:00,
2013-01-09 01:23:00,52.0,50.9,29.95,NW,317,3.0,4.0,96,0.42,, +RA,0.70,VWS V14.01,2013-01-09 07:23:00,
2013-01-09 01:28:00,52.1,51.0,29.95,NW,317,2.0,5.0,96,0.48,, +RA,0.76,VWS V14.01,2013-01-09 07:28:00,
2013-01-09 01:30:00,51.8,50.7,29.95,ENE,72,0.0,2.0,96,0.49,,-RA,0.66,VWS V14.01,2013-01-09 07:30:00,
2013-01-09 01:33:00,52.3,51.2,29.94,NNW,332,2.0,5.0,96,0.54,, +RA,0.84,VWS V14.01,2013-01-09 07:33:00,
2013-01-09 01:38:00,52.3,51.2,29.94,NW,313,2.0,5.0,96,0.59,, +RA,0.89,VWS V14.01,2013-01-09 07:38:00,
2013-01-09 01:40:00,52.1,51.0,29.95,NW,317,1.0,5.0,96,0.48,,-RA,0.76,VWS V14.01,2013-01-09 07:40:00,
2013-01-09 01:43:00,52.3,51.2,29.94,NW,321,1.0,4.0,96,0.59,, +RA,0.92,VWS V14.01,2013-01-09 07:43:00,
2013-01-09 01:48:00,52.4,51.3,29.93,NNW,336,0.0,4.0,96,0.63,, +RA,0.96,VWS V14.01,2013-01-09 07:48:00,
2013-01-09 01:50:00,52.3,51.2,29.94,NW,313,2.0,5.0,96,0.59,,-RA,0.89,VWS V14.01,2013-01-09 07:50:00,
2013-01-09 01:53:00,52.4,51.3,29.93,NW,311,2.0,4.0,96,0.62,, +RA,1.00,VWS V14.01,2013-01-09 07:53:00,
2013-01-09 01:58:00,52.4,51.3,29.93,NNW,330,0.0,4.0,96,0.66,, +RA,1.04,VWS V14.01,2013-01-09 07:58:00,
2013-01-09 02:00:00,52.4,51.3,29.93,NNW,336,3.0,4.0,96,0.63,,-RA,0.96,VWS V14.01,2013-01-09 08:00:00,
2013-01-09 02:03:00,52.4,51.3,29.90,NNW,345,2.0,5.0,96,0.61,, +RA,1.06,VWS V14.01,2013-01-09 08:03:00,
2013-01-09 02:08:00,52.4,51.3,29.90,NNW,342,0.0,5.0,96,0.63,, +RA,1.08,VWS V14.01,2013-01-09 08:08:00,
2013-01-09 02:10:00,52.4,51.3,29.93,NNW,330,2.0,4.0,96,0.66,,-RA,1.04,VWS V14.01,2013-01-09 08:10:00,
2013-01-09 02:13:00,52.6,51.5,29.90,NNW,341,0.0,1.0,96,0.55,, +RA,1.09,VWS V14.01,2013-01-09 08:13:00,
2013-01-09 02:18:00,52.6,51.5,29.93,NNW,342,1.0,3.0,96,0.58,, +RA,1.12,VWS V14.01,2013-01-09 08:18:00,
2013-01-09 02:20:00,52.6,51.5,29.90,NNW,341,1.0,5.0,96,0.63,,-RA,1.08,VWS V14.01,2013-01-09 08:20:00,
2013-01-09 02:23:00,52.7,51.6,29.93,NNE,17,2.0,4.0,96,0.55,,RA,1.21,VWS V14.01,2013-01-09 08:23:00,
2013-01-09 02:28:00,52.7,51.6,29.93,NW,322,1.0,4.0,96,0.62,,RA,1.28,VWS V14.01,2013-01-09 08:28:00,
2013-01-09 02:30:00,52.6,51.5,29.93,NNW,342,1.0,3.0,96,0.59,,-RA,1.13,VWS V14.01,2013-01-09 08:30:00,
2013-01-09 02:33:00,52.8,51.7,29.93,NW,321,1.0,3.0,96,0.54,,RA,1.30,VWS V14.01,2013-01-09 08:33:00,
2013-01-09 02:38:00,52.8,51.7,29.93,NW,324,1.0,3.0,96,0.55,,RA,1.31,VWS V14.01,2013-01-09 08:38:00,
2013-01-09 02:40:00,52.7,51.6,29.93,NW,322,0.0,4.0,96,0.62,,-RA,1.28,VWS V14.01,2013-01-09 08:40:00,
2013-01-09 02:43:00,52.8,51.7,29.93,NW,326,1.0,4.0,96,0.44,, +RA,1.33,VWS V14.01,2013-01-09 08:43:00,
2013-01-09 02:48:00,52.8,51.7,29.91,NNW,327,0.0,4.0,96,0.46,, +RA,1.35,VWS V14.01,2013-01-09 08:48:00,
2013-01-09 02:50:00,52.8,51.7,29.93,NW,324,2.0,3.0,96,0.55,,-RA,1.31,VWS V14.01,2013-01-09 08:50:00,
2013-01-09 02:53:00,53.0,51.9,29.91,NNW,327,0.0,2.0,96,0.39,, +RA,1.35,VWS V14.01,2013-01-09 08:53:00,
2013-01-09 02:58:00,53.0,51.9,29.91,NNW,327,1.0,2.0,96,0.39,, +RA,1.35,VWS V14.01,2013-01-09 08:58:00,
2013-01-09 03:00:00,52.8,51.7,29.91,NNW,327,0.0,4.0,96,0.46,,-RA,1.35,VWS V14.01,2013-01-09 09:00:00,
2013-01-09 03:03:00,53.0,51.9,29.91,NNW,327,1.0,4.0,96,0.33,,RA,1.37,VWS V14.01,2013-01-09 09:03:00,
2013-01-09 03:08:00,53.0,51.9,29.91,NNE,19,2.0,4.0,96,0.36,,RA,1.40,VWS V14.01,2013-01-09 09:08:00,
2013-01-09 03:10:00,53.0,51.9,29.91,NNW,327,1.0,2.0,96,0.39,,-RA,1.35,VWS V14.01,2013-01-09 09:10:00,
2013-01-09 03:13:00,53.1,52.0,29.91,NNE,26,0.0,4.0,96,0.34,,RA,1.42,VWS V14.01,2013-01-09 09:13:00,
2013-01-09 03:18:00,53.1,52.0,29.90,NNE,26,0.0,4.0,96,0.34,,RA,1.42,VWS V14.01,2013-01-09 09:18:00,
2013-01-09 03:20:00,53.0,51.9,29.91,North,5,3.0,4.0,96,0.36,,-RA,1.40,VWS V14.01,2013-01-09 09:20:00,
2013-01-09 03:23:00,53.1,52.0,29.90,NNE,22,1.0,4.0,96,0.30,,RA,1.43,VWS V14.01,2013-01-09 09:23:00,
2013-01-09 03:28:00,53.1,52.0,29.90,NE,47,1.0,4.0,96,0.30,,RA,1.43,VWS V14.01,2013-01-09 09:28:00,
2013-01-09 03:30:00,53.1,52.0,29.90,NNE,26,1.0,4.0,96,0.34,,-RA,1.42,VWS V14.01,2013-01-09 09:30:00,
2013-01-09 03:33:00,53.1,52.0,29.91,ENE,63,1.0,3.0,96,0.16,,RA,1.44,VWS V14.01,2013-01-09 09:33:00,
2013-01-09 03:38:00,53.1,52.0,29.91,North,360,0.0,4.0,96,0.18,,RA,1.46,VWS V14.01,2013-01-09 09:38:00,
2013-01-09 03:40:00,53.1,52.0,29.90,NE,47,1.0,4.0,96,0.30,,-RA,1.43,VWS V14.01,2013-01-09 09:40:00,
2013-01-09 03:43:00,53.3,52.2,29.91,North,5,3.0,4.0,96,0.18,,RA,1.49,VWS V14.01,2013-01-09 09:43:00,
2013-01-09 03:48:00,53.3,52.2,29.92,NNW,348,2.0,5.0,96,0.19,,RA,1.50,VWS V14.01,2013-01-09 09:48:00,
2013-01-09 03:50:00,53.1,52.0,29.91,North,360,0.0,4.0,96,0.18,,-RA,1.46,VWS V14.01,2013-01-09 09:50:00,
2013-01-09 03:53:00,53.3,52.2,29.92,NNW,348,0.0,2.0,96,0.16,,RA,1.51,VWS V14.01,2013-01-09 09:53:00,
2013-01-09 03:58:00,53.3,52.2,29.92,NNW,348,2.0,3.0,96,0.18,,RA,1.53,VWS V14.01,2013-01-09 09:58:00,
2013-01-09 04:00:00,53.3,52.2,29.92,NNW,348,1.0,5.0,96,0.19,,-RA,1.50,VWS V14.01,2013-01-09 10:00:00,
2013-01-09 04:03:00,53.4,52.3,29.93,NNW,348,0.0,3.0,96,0.19,,RA,1.54,VWS V14.01,2013-01-09 10:03:00,
2013-01-09 04:08:00,53.4,52.3,29.93,North,9,2.0,3.0,96,0.19,,RA,1.54,VWS V14.01,2013-01-09 10:08:00,
2013-01-09 04:10:00,53.3,52.2,29.92,NNW,348,2.0,3.0,96,0.18,,-RA,1.53,VWS V14.01,2013-01-09 10:10:00,
2013-01-09 04:13:00,53.4,52.3,29.93,North,360,2.0,4.0,96,0.16,,RA,1.56,VWS V14.01,2013-01-09 10:13:00,
2013-01-09 04:18:00,53.4,52.3,29.90,NNW,344,0.0,4.0,96,0.17,,RA,1.57,VWS V14.01,2013-01-09 10:18:00,
2013-01-09 04:20:00,53.4,52.3,29.93,NE,43,3.0,3.0,96,0.19,,-RA,1.54,VWS V14.01,2013-01-09 10:20:00,
2013-01-09 04:23:00,53.4,52.3,29.90,North,355,2.0,4.0,96,0.15,,RA,1.57,VWS V14.01,2013-01-09 10:23:00,
2013-01-09 04:28:00,53.4,52.3,29.90,North,5,0.0,5.0,96,0.15,,RA,1.57,VWS V14.01,2013-01-09 10:28:00,
2013-01-09 04:30:00,53.4,52.3,29.90,NNW,344,0.0,4.0,96,0.17,,-RA,1.57,VWS V14.01,2013-01-09 10:30:00,
2013-01-09 04:33:00,53.4,52.3,29.88,North,360,0.0,4.0,96,0.14,,RA,1.57,VWS V14.01,2013-01-09 10:33:00,
2013-01-09 04:38:00,53.4,52.3,29.88,North,350,0.0,4.0,96,0.14,,RA,1.57,VWS V14.01,2013-01-09 10:38:00,
2013-01-09 04:40:00,53.4,52.3,29.90,North,5,0.0,5.0,96,0.15,,-RA,1.57,VWS V14.01,2013-01-09 10:40:00,
2013-01-09 04:43:00,53.4,52.3,29.88,North,350,1.0,4.0,96,0.11,,RA,1.57,VWS V14.01,2013-01-09 10:43:00,
2013-01-09 04:48:00,53.6,52.5,29.89,East,80,1.0,4.0,96,0.11,,RA,1.57,VWS V14.01,2013-01-09 10:48:00,
2013-01-09 04:50:00,53.4,52.3,29.88,North,350,0.0,4.0,96,0.14,,-RA,1.57,VWS V14.01,2013-01-09 10:50:00,
2013-01-09 04:53:00,53.6,52.5,29.89,North,360,2.0,7.0,96,0.07,,RA,1.57,VWS V14.01,2013-01-09 10:53:00,
2013-01-09 04:58:00,53.7,52.6,29.89,North,5,0.0,7.0,96,0.07,,RA,1.57,VWS V14.01,2013-01-09 10:58:00,
2013-01-09 05:00:00,53.6,52.5,29.89,NNE,22,7.0,7.0,96,0.11,,-RA,1.57,VWS V14.01,2013-01-09 11:00:00,
2013-01-09 05:03:00,53.7,52.6,29.89,North,355,1.0,5.0,96,0.04,,-RA,1.57,VWS V14.01,2013-01-09 11:03:00,
2013-01-09 05:08:00,53.9,52.8,29.89,NNE,15,2.0,5.0,96,0.04,,-RA,1.57,VWS V14.01,2013-01-09 11:08:00,
2013-01-09 05:10:00,53.7,52.6,29.89,North,5,1.0,7.0,96,0.07,,-RA,1.57,VWS V14.01,2013-01-09 11:10:00,
2013-01-09 05:13:00,53.9,52.8,29.89,North,355,2.0,5.0,96,0.04,,-RA,1.58,VWS V14.01,2013-01-09 11:13:00,
2013-01-09 05:18:00,54.0,52.9,29.88,NNE,17,4.0,6.0,96,0.04,,-RA,1.58,VWS V14.01,2013-01-09 11:18:00,
2013-01-09 05:20:00,53.9,52.8,29.89,NNE,15,2.0,5.0,96,0.04,,-RA,1.57,VWS V14.01,2013-01-09 11:20:00,
2013-01-09 05:23:00,54.2,53.1,29.88,North,5,0.0,6.0,96,0.02,,-RA,1.59,VWS V14.01,2013-01-09 11:23:00,
2013-01-09 05:28:00,54.2,53.1,29.88,NNE,14,1.0,6.0,96,0.02,,-RA,1.59,VWS V14.01,2013-01-09 11:28:00,
2013-01-09 05:30:00,54.0,52.9,29.88,NNE,17,2.0,6.0,96,0.04,,-RA,1.58,VWS V14.01,2013-01-09 11:30:00,
2013-01-09 05:33:00,54.3,53.2,29.89,NNW,348,2.0,4.0,96,0.02,,RA,1.59,VWS V14.01,2013-01-09 11:33:00,
2013-01-09 05:38:00,54.5,53.4,29.89,NNW,348,2.0,4.0,96,0.02,,RA,1.59,VWS V14.01,2013-01-09 11:38:00,
2013-01-09 05:40:00,54.2,53.1,29.88,NNE,14,3.0,6.0,96,0.02,,-RA,1.59,VWS V14.01,2013-01-09 11:40:00,
2013-01-09 05:43:00,54.5,53.4,29.89,NNE,15,0.0,4.0,96,0.03,,RA,1.60,VWS V14.01,2013-01-09 11:43:00,
2013-01-09 05:48:00,54.6,53.5,29.88,NNE,15,3.0,4.0,96,0.03,,RA,1.60,VWS V14.01,2013-01-09 11:48:00,
2013-01-09 05:50:00,54.5,53.4,29.89,NNW,348,1.0,4.0,96,0.02,,-RA,1.59,VWS V14.01,2013-01-09 11:50:00,
2013-01-09 05:53:00,54.8,53.7,29.88,North,5,2.0,4.0,96,0.04,,RA,1.61,VWS V14.01,2013-01-09 11:53:00,
2013-01-09 05:58:00,54.9,53.8,29.88,NNE,28,3.0,4.0,96,0.06,,RA,1.63,VWS V14.01,2013-01-09 11:58:00,
2013-01-09 06:00:00,54.6,53.5,29.88,NNE,15,2.0,4.0,96,0.03,,-RA,1.60,VWS V14.01,2013-01-09 12:00:00,
2013-01-09 06:03:00,55.1,54.0,29.90,NE,56,0.0,4.0,96,0.08,,-RA,1.65,VWS V14.01,2013-01-09 12:03:00,
2013-01-09 06:08:00,55.1,54.0,29.90,North,11,0.0,4.0,96,0.09,,-RA,1.66,VWS V14.01,2013-01-09 12:08:00,
2013-01-09 06:10:00,54.9,53.8,29.88,NNE,28,1.0,4.0,96,0.06,,-RA,1.63,VWS V14.01,2013-01-09 12:10:00,
2013-01-09 06:13:00,55.2,54.1,29.90,North,11,0.0,2.0,96,0.10,,-RA,1.67,VWS V14.01,2013-01-09 12:13:00,
2013-01-09 06:18:00,55.4,54.3,29.91,North,355,1.0,5.0,96,0.10,,-RA,1.67,VWS V14.01,2013-01-09 12:18:00,
2013-01-09 06:20:00,55.1,54.0,29.90,North,11,0.0,4.0,96,0.09,,-RA,1.66,VWS V14.01,2013-01-09 12:20:00,
2013-01-09 06:23:00,55.5,54.4,29.91,North,350,0.0,3.0,96,0.09,,-RA,1.67,VWS V14.01,2013-01-09 12:23:00,
2013-01-09 06:28:00,55.5,54.4,29.91,North,350,0.0,3.0,96,0.09,,-RA,1.67,VWS V14.01,2013-01-09 12:28:00,
2013-01-09 06:30:00,55.4,54.3,29.91,North,355,1.0,5.0,96,0.10,,-RA,1.67,VWS V14.01,2013-01-09 12:30:00,
2013-01-09 06:33:00,55.7,54.6,29.93,North,350,0.0,3.0,96,0.09,,-RA,1.68,VWS V14.01,2013-01-09 12:33:00,
2013-01-09 06:38:00,55.8,54.7,29.93,North,350,3.0,3.0,96,0.10,,-RA,1.69,VWS V14.01,2013-01-09 12:38:00,
2013-01-09 06:40:00,55.5,54.4,29.91,North,350,0.0,3.0,96,0.09,,-RA,1.67,VWS V14.01,2013-01-09 12:40:00,
2013-01-09 06:43:00,55.8,54.7,29.93,North,350,0.0,3.0,96,0.11,,-RA,1.70,VWS V14.01,2013-01-09 12:43:00,
2013-01-09 06:48:00,56.0,54.9,29.93,North,350,1.0,3.0,96,0.12,,-RA,1.71,VWS V14.01,2013-01-09 12:48:00,
2013-01-09 06:50:00,55.8,54.7,29.93,North,350,3.0,3.0,96,0.10,,-RA,1.69,VWS V14.01,2013-01-09 12:50:00,
2013-01-09 06:53:00,56.0,54.9,29.93,North,350,0.0,4.0,96,0.11,,-RA,1.71,VWS V14.01,2013-01-09 12:53:00,
2013-01-09 06:58:00,56.1,55.0,29.93,NNW,342,0.0,4.0,96,0.11,,-RA,1.71,VWS V14.01,2013-01-09 12:58:00,
2013-01-09 07:00:00,56.0,54.9,29.93,North,350,1.0,3.0,96,0.12,,-RA,1.71,VWS V14.01,2013-01-09 13:00:00,
2013-01-09 07:03:00,56.1,55.0,29.92,NW,321,2.0,3.0,96,0.09,,RA,1.72,VWS V14.01,2013-01-09 13:03:00,
2013-01-09 07:08:00,56.1,55.0,29.92,NNW,332,2.0,3.0,96,0.09,,RA,1.72,VWS V14.01,2013-01-09 13:08:00,
2013-01-09 07:10:00,56.1,55.0,29.93,NNW,342,0.0,4.0,96,0.11,,-RA,1.71,VWS V14.01,2013-01-09 13:10:00,
2013-01-09 07:13:00,56.1,55.0,29.92,NNW,332,0.0,3.0,96,0.06,,RA,1.72,VWS V14.01,2013-01-09 13:13:00,
2013-01-09 07:18:00,56.2,55.1,29.91,NW,317,3.0,3.0,96,0.06,,RA,1.72,VWS V14.01,2013-01-09 13:18:00,
2013-01-09 07:20:00,56.1,55.0,29.92,NNW,332,2.0,3.0,96,0.09,,-RA,1.72,VWS V14.01,2013-01-09 13:20:00,
2013-01-09 07:23:00,56.2,55.1,29.91,NW,317,0.0,3.0,96,0.05,,RA,1.72,VWS V14.01,2013-01-09 13:23:00,
2013-01-09 07:28:00,56.2,55.1,29.91,NW,317,0.0,3.0,96,0.05,,RA,1.72,VWS V14.01,2013-01-09 13:28:00,
2013-01-09 07:30:00,56.2,55.1,29.91,NW,317,3.0,3.0,96,0.06,,-RA,1.72,VWS V14.01,2013-01-09 13:30:00,
2013-01-09 07:33:00,56.2,55.1,29.94,NW,317,0.0,1.0,96,0.05,,RA,1.72,VWS V14.01,2013-01-09 13:33:00,
2013-01-09 07:38:00,56.4,55.3,29.94,NW,317,0.0,1.0,96,0.05,,RA,1.72,VWS V14.01,2013-01-09 13:38:00,
2013-01-09 07:40:00,56.2,55.1,29.91,NW,317,0.0,3.0,96,0.05,,-RA,1.72,VWS V14.01,2013-01-09 13:40:00,
2013-01-09 07:43:00,56.5,55.4,29.94,NW,321,4.0,4.0,96,0.03,,RA,1.72,VWS V14.01,2013-01-09 13:43:00,
2013-01-09 07:48:00,56.5,55.4,29.93,NNW,334,3.0,5.0,96,0.03,,RA,1.72,VWS V14.01,2013-01-09 13:48:00,
2013-01-09 07:50:00,56.4,55.3,29.94,NW,317,0.0,1.0,96,0.05,,-RA,1.72,VWS V14.01,2013-01-09 13:50:00,
2013-01-09 07:53:00,56.5,55.4,29.93,NNW,336,0.0,3.0,96,0.01,,RA,1.72,VWS V14.01,2013-01-09 13:53:00,
2013-01-09 07:58:00,56.5,55.4,29.93,NNW,336,0.0,3.0,96,0.01,,RA,1.72,VWS V14.01,2013-01-09 13:58:00,
2013-01-09 08:00:00,56.5,55.4,29.93,NNW,334,3.0,5.0,96,0.03,,-RA,1.72,VWS V14.01,2013-01-09 14:00:00,
2013-01-09 08:03:00,56.7,55.6,29.94,NNW,336,2.0,3.0,96,0.02,,-RA,1.73,VWS V14.01,2013-01-09 14:03:00,
2013-01-09 08:08:00,56.7,55.6,29.94,NNW,336,3.0,4.0,96,0.02,,-RA,1.73,VWS V14.01,2013-01-09 14:08:00,
2013-01-09 08:10:00,56.5,55.4,29.93,NNW,336,0.0,3.0,96,0.01,,-RA,1.72,VWS V14.01,2013-01-09 14:10:00,
2013-01-09 08:13:00,56.7,55.6,29.94,NNW,336,0.0,3.0,96,0.01,,-RA,1.73,VWS V14.01,2013-01-09 14:13:00,
2013-01-09 08:18:00,56.7,55.6,29.95,NNW,336,2.0,3.0,96,0.01,,-RA,1.73,VWS V14.01,2013-01-09 14:18:00,
2013-01-09 08:20:00,56.7,55.6,29.94,NNW,336,3.0,4.0,96,0.02,,-RA,1.73,VWS V14.01,2013-01-09 14:20:00,
2013-01-09 08:30:00,56.7,55.6,29.95,NNW,336,2.0,3.0,96,0.01,,-RA,1.73,VWS V14.01,2013-01-09 14:30:00,
2013-01-09 08:40:00,56.7,55.6,29.95,NNW,338,1.0,3.0,96,0.01,,-RA,1.73,VWS V14.01,2013-01-09 14:40:00,
2013-01-09 08:50:00,56.8,55.7,29.96,NNW,338,1.0,3.0,96,0.01,,-RA,1.73,VWS V14.01,2013-01-09 14:50:00,
2013-01-09 09:00:00,56.8,55.7,29.97,NNW,338,0.0,1.0,96,0.02,,-RA,1.74,VWS V14.01,2013-01-09 15:00:00,
2013-01-09 09:10:00,57.1,56.0,29.97,NNW,338,0.0,2.0,96,0.03,,-RA,1.75,VWS V14.01,2013-01-09 15:10:00,
2013-01-09 09:20:00,57.4,56.3,29.97,NNW,338,0.0,3.0,96,0.03,,-RA,1.75,VWS V14.01,2013-01-09 15:20:00,
2013-01-09 09:30:00,57.7,56.6,29.95,NNW,338,2.0,4.0,96,0.02,,-RA,1.75,VWS V14.01,2013-01-09 15:30:00,
2013-01-09 09:40:00,58.0,56.9,29.95,NNW,338,1.0,4.0,96,0.02,,-RA,1.75,VWS V14.01,2013-01-09 15:40:00,
2013-01-09 09:50:00,57.9,56.8,29.95,NNW,338,1.0,5.0,96,0.02,,-RA,1.75,VWS V14.01,2013-01-09 15:50:00,
2013-01-09 10:00:00,58.1,57.0,29.96,North,0,1.0,4.0,96,0.02,,-RA,1.75,VWS V14.01,2013-01-09 16:00:00,
2013-01-09 10:10:00,58.1,57.0,29.96,North,0,0.0,2.0,96,0.01,,-RA,1.75,VWS V14.01,2013-01-09 16:10:00,
2013-01-09 10:20:00,58.1,57.0,29.98,North,0,0.0,2.0,96,0.00,,-RA,1.75,VWS V14.01,2013-01-09 16:20:00,
2013-01-09 10:30:00,58.1,57.0,30.00,North,0,0.0,1.0,96,0.00,,-RA,1.75,VWS V14.01,2013-01-09 16:30:00,
2013-01-09 10:40:00,58.2,57.1,30.00,North,0,0.0,2.0,96,0.00,,-RA,1.75,VWS V14.01,2013-01-09 16:40:00,
2013-01-09 10:50:00,58.4,57.3,30.01,North,0,0.0,0.0,96,0.00,,-RA,1.75,VWS V14.01,2013-01-09 16:50:00,
2013-01-09 11:00:00,58.5,57.1,29.92,North,0,2.0,6.0,95,0.00,,-RA,1.75,VWS V14.01,2013-01-09 17:00:00,
2013-01-09 11:10:00,58.2,56.8,29.92,NW,315,1.0,4.0,95,0.00,,-RA,1.75,VWS V14.01,2013-01-09 17:10:00,
2013-01-09 11:20:00,58.1,56.7,29.97,NW,315,0.0,2.0,95,0.00,,-RA,1.75,VWS V14.01,2013-01-09 17:20:00,
2013-01-09 11:30:00,58.2,56.8,29.95,North,0,1.0,3.0,95,0.00,,-RA,1.75,VWS V14.01,2013-01-09 17:30:00,
2013-01-09 11:40:00,58.2,56.8,29.95,North,0,1.0,3.0,95,0.00,,-RA,1.75,VWS V14.01,2013-01-09 17:40:00,
2013-01-09 11:50:00,58.1,56.7,29.95,North,0,0.0,3.0,95,0.00,,-RA,1.75,VWS V14.01,2013-01-09 17:50:00,
2013-01-09 12:00:00,58.0,56.6,29.96,NNW,338,0.0,6.0,95,0.01,,-RA,1.76,VWS V14.01,2013-01-09 18:00:00,
2013-01-09 12:10:00,57.9,56.5,29.96,NNE,22,2.0,5.0,95,0.01,,-RA,1.76,VWS V14.01,2013-01-09 18:10:00,
2013-01-09 12:20:00,57.7,56.3,29.86,NNE,22,2.0,7.0,95,0.01,,-RA,1.76,VWS V14.01,2013-01-09 18:20:00,
2013-01-09 12:30:00,57.6,56.2,29.87,North,0,2.0,7.0,95,0.01,,-RA,1.76,VWS V14.01,2013-01-09 18:30:00,
2013-01-09 12:40:00,57.7,56.3,29.87,NNE,22,2.0,5.0,95,0.01,,-RA,1.76,VWS V14.01,2013-01-09 18:40:00,
2013-01-09 12:50:00,57.8,56.4,29.88,NNE,22,2.0,7.0,95,0.01,,-RA,1.76,VWS V14.01,2013-01-09 18:50:00,
2013-01-09 13:00:00,57.9,56.5,29.86,NNE,22,2.0,6.0,95,0.01,,-RA,1.76,VWS V14.01,2013-01-09 19:00:00,
2013-01-09 13:10:00,58.0,56.3,29.86,NNW,338,1.0,6.0,94,0.00,,-RA,1.76,VWS V14.01,2013-01-09 19:10:00,
2013-01-09 13:20:00,57.7,56.0,29.85,NNE,22,1.0,5.0,94,0.00,,-RA,1.76,VWS V14.01,2013-01-09 19:20:00,
2013-01-09 13:30:00,57.7,56.0,29.86,NNE,22,0.0,3.0,94,0.00,,-RA,1.76,VWS V14.01,2013-01-09 19:30:00,
2013-01-09 13:40:00,57.9,56.2,29.86,NNE,22,1.0,4.0,94,0.00,,FEW025,1.76,VWS V14.01,2013-01-09 19:40:00,
2013-01-09 13:50:00,58.5,56.5,29.87,NNE,22,1.0,4.0,93,0.00,,-RA,1.76,VWS V14.01,2013-01-09 19:50:00,
2013-01-09 14:00:00,58.7,56.7,29.87,NNE,22,1.0,3.0,93,0.00,,-RA,1.76,VWS V14.01,2013-01-09 20:00:00,
2013-01-09 14:10:00,58.9,56.6,29.87,ENE,68,1.0,3.0,92,0.00,,-RA,1.76,VWS V14.01,2013-01-09 20:10:00,
2013-01-09 14:20:00,59.3,56.4,29.89,ESE,112,0.0,2.0,90,0.00,,-RA,1.76,VWS V14.01,2013-01-09 20:20:00,
2013-01-09 14:30:00,59.8,56.2,29.89,ESE,112,0.0,2.0,88,0.00,,-RA,1.76,VWS V14.01,2013-01-09 20:30:00,
2013-01-09 14:40:00,59.8,55.6,29.89,NW,315,1.0,4.0,86,0.00,,-RA,1.76,VWS V14.01,2013-01-09 20:40:00,
2013-01-09 14:50:00,59.5,55.3,29.90,NW,315,0.0,2.0,86,0.00,,-RA,1.76,VWS V14.01,2013-01-09 20:50:00,
2013-01-09 15:00:00,59.7,55.2,29.90,NW,315,0.0,2.0,85,0.00,,-RA,1.76,VWS V14.01,2013-01-09 21:00:00,
2013-01-09 15:10:00,59.9,55.1,29.90,NW,315,0.0,2.0,84,0.00,,-RA,1.76,VWS V14.01,2013-01-09 21:10:00,
2013-01-09 15:20:00,60.0,55.2,29.90,NW,315,0.0,1.0,84,0.00,,-RA,1.76,VWS V14.01,2013-01-09 21:20:00,
2013-01-09 15:30:00,60.2,55.0,29.91,NW,315,0.0,1.0,83,0.00,,-RA,1.76,VWS V14.01,2013-01-09 21:30:00,
2013-01-09 15:40:00,60.5,55.3,29.91,NW,315,0.0,1.0,83,0.00,,-RA,1.76,VWS V14.01,2013-01-09 21:40:00,
2013-01-09 15:50:00,60.7,55.2,29.92,NW,315,0.0,2.0,82,0.00,,-RA,1.76,VWS V14.01,2013-01-09 21:50:00,
2013-01-09 16:00:00,60.6,55.4,29.93,NW,315,0.0,2.0,83,0.00,,-RA,1.76,VWS V14.01,2013-01-09 22:00:00,
2013-01-09 16:10:00,60.6,55.1,29.93,NW,315,0.0,0.0,82,0.00,,-RA,1.76,VWS V14.01,2013-01-09 22:10:00,
2013-01-09 16:20:00,60.9,55.4,29.92,NW,315,0.0,0.0,82,0.00,,FEW025,1.76,VWS V14.01,2013-01-09 22:20:00,
2013-01-09 16:21:00,60.9,55.4,29.92,NW,315,0.0,0.0,82,0.00,,-RA,1.76,VWS V14.01,2013-01-09 22:21:00,
2013-01-09 16:26:00,61.5,55.3,29.92,NW,323,0.0,0.0,80,0.00,,-RA,1.76,VWS V14.01,2013-01-09 22:26:00,
2013-01-09 16:30:00,61.3,55.8,29.95,NW,323,0.0,0.0,82,0.00,,BKN014,1.76,VWS V14.01,2013-01-09 22:30:00,
2013-01-09 16:31:00,61.5,55.6,29.92,NW,323,0.0,0.0,81,0.00,,OVC019,1.76,VWS V14.01,2013-01-09 22:31:00,
2013-01-09 16:36:00,61.5,56.0,29.93,NW,323,0.0,0.0,82,0.00,,OVC019,1.76,VWS V14.01,2013-01-09 22:36:00,
2013-01-09 16:40:00,61.5,55.6,29.92,NW,323,0.0,0.0,81,0.00,,FEW025,1.76,VWS V14.01,2013-01-09 22:40:00,
2013-01-09 16:41:00,61.6,55.7,29.93,NW,323,0.0,0.0,81,0.00,,OVC019,1.76,VWS V14.01,2013-01-09 22:41:00,
2013-01-09 16:46:00,61.6,55.7,29.93,NW,323,0.0,0.0,81,0.00,,OVC019,1.76,VWS V14.01,2013-01-09 22:46:00,
2013-01-09 16:50:00,61.6,56.1,29.93,NW,323,0.0,0.0,82,0.00,,FEW025,1.76,VWS V14.01,2013-01-09 22:50:00,
2013-01-09 16:51:00,61.6,55.7,29.94,NW,323,0.0,0.0,81,0.00,,OVC019,1.76,VWS V14.01,2013-01-09 22:51:00,
2013-01-09 16:56:00,61.5,56.0,29.94,NW,323,0.0,1.0,82,0.00,,OVC019,1.76,VWS V14.01,2013-01-09 22:56:00,
2013-01-09 17:00:00,61.6,55.7,29.94,NW,323,0.0,0.0,81,0.00,,FEW025,1.76,VWS V14.01,2013-01-09 23:00:00,
2013-01-09 17:01:00,61.3,55.8,29.94,NW,323,0.0,0.0,82,0.00,,BKN023,1.76,VWS V14.01,2013-01-09 23:01:00,
2013-01-09 17:06:00,61.3,55.8,29.95,NW,323,0.0,0.0,82,0.00,,BKN023,1.76,VWS V14.01,2013-01-09 23:06:00,
2013-01-09 17:10:00,61.5,56.0,29.94,NW,323,0.0,1.0,82,0.00,,FEW025,1.76,VWS V14.01,2013-01-09 23:10:00,
2013-01-09 17:11:00,61.3,56.1,29.95,NW,323,0.0,0.0,83,0.00,,BKN023,1.76,VWS V14.01,2013-01-09 23:11:00,
2013-01-09 17:16:00,61.3,55.8,29.95,NW,323,0.0,0.0,82,0.00,,BKN023,1.76,VWS V14.01,2013-01-09 23:16:00,
2013-01-09 17:20:00,61.3,55.8,29.95,NW,323,0.0,0.0,82,0.00,,FEW025,1.76,VWS V14.01,2013-01-09 23:20:00,
2013-01-09 17:21:00,61.1,55.6,29.95,NW,323,0.0,0.0,82,0.00,,BKN023,1.76,VWS V14.01,2013-01-09 23:21:00,
2013-01-09 17:26:00,61.0,55.1,29.95,NW,323,0.0,0.0,81,0.00,,BKN023,1.76,VWS V14.01,2013-01-09 23:26:00,
2013-01-09 17:30:00,61.3,55.8,29.95,NW,323,0.0,0.0,82,0.00,,FEW025,1.76,VWS V14.01,2013-01-09 23:30:00,
2013-01-09 17:31:00,60.7,55.2,29.95,NW,323,0.0,0.0,82,0.00,,BKN023,1.76,VWS V14.01,2013-01-09 23:31:00,
2013-01-09 17:36:00,60.5,55.0,29.95,NW,323,0.0,0.0,82,0.00,,BKN023,1.76,VWS V14.01,2013-01-09 23:36:00,
2013-01-09 17:40:00,60.8,55.3,29.95,NW,323,0.0,0.0,82,0.00,,CLR,1.76,VWS V14.01,2013-01-09 23:40:00,
2013-01-09 17:41:00,60.2,55.0,29.95,NW,323,0.0,0.0,83,0.00,,FEW025,1.76,VWS V14.01,2013-01-09 23:41:00,
2013-01-09 17:49:00,59.4,54.2,29.95,NW,323,0.0,0.0,83,0.00,,FEW025,1.76,VWS V14.01,2013-01-09 23:49:00,
2013-01-09 17:50:00,60.4,54.9,29.95,NW,323,0.0,0.0,82,0.00,,CLR,1.76,VWS V14.01,2013-01-09 23:50:00,
2013-01-09 17:54:00,59.0,53.8,29.95,NW,323,0.0,0.0,83,0.00,,FEW025,1.76,VWS V14.01,2013-01-09 23:54:00,
2013-01-09 17:59:00,58.4,53.6,29.95,NW,323,0.0,0.0,84,0.00,,FEW025,1.76,VWS V14.01,2013-01-09 23:59:00,
2013-01-09 18:00:00,59.4,54.2,29.95,NW,323,0.0,0.0,83,0.00,,CLR,1.76,VWS V14.01,2013-01-10 00:00:00,
2013-01-09 18:04:00,57.9,53.4,29.95,NW,323,0.0,0.0,85,0.00,,CLR,1.76,VWS V14.01,2013-01-10 00:04:00,
2013-01-09 18:09:00,57.5,53.3,29.95,NW,323,0.0,0.0,86,0.00,,CLR,1.76,VWS V14.01,2013-01-10 00:09:00,
2013-01-09 18:10:00,58.4,53.6,29.95,NW,323,0.0,0.0,84,0.00,,CLR,1.76,VWS V14.01,2013-01-10 00:10:00,
2013-01-09 18:20:00,56.2,52.4,29.95,NW,323,0.0,0.0,87,0.00,,CLR,1.76,VWS V14.01,2013-01-10 00:20:00,
2013-01-09 18:25:00,56.0,52.5,29.95,NW,323,0.0,0.0,88,0.00,,CLR,1.76,VWS V14.01,2013-01-10 00:25:00,
2013-01-09 18:30:00,55.5,52.0,29.95,NW,323,0.0,0.0,88,0.00,,CLR,1.76,VWS V14.01,2013-01-10 00:30:00,
2013-01-09 18:35:00,55.2,51.7,29.95,NW,323,0.0,0.0,88,0.00,,CLR,1.76,VWS V14.01,2013-01-10 00:35:00,
2013-01-09 18:40:00,54.9,51.7,29.95,NW,323,0.0,0.0,89,0.00,,CLR,1.76,VWS V14.01,2013-01-10 00:40:00,
2013-01-09 18:45:00,54.6,51.4,29.95,NW,323,0.0,0.0,89,0.00,,CLR,1.76,VWS V14.01,2013-01-10 00:45:00,
2013-01-09 18:50:00,54.3,51.4,29.95,NW,323,0.0,0.0,90,0.00,,CLR,1.76,VWS V14.01,2013-01-10 00:50:00,
2013-01-09 18:55:00,53.9,51.0,29.95,NW,323,0.0,0.0,90,0.00,,CLR,1.76,VWS V14.01,2013-01-10 00:55:00,
2013-01-09 19:00:00,53.6,50.7,29.95,NW,323,0.0,0.0,90,0.00,,CLR,1.76,VWS V14.01,2013-01-10 01:00:00,
2013-01-09 19:05:00,53.3,50.5,29.96,NW,323,0.0,0.0,90,0.00,,CLR,1.76,VWS V14.01,2013-01-10 01:05:00,
2013-01-09 19:10:00,53.0,50.2,29.96,NW,323,0.0,0.0,90,0.00,,CLR,1.76,VWS V14.01,2013-01-10 01:10:00,
2013-01-09 19:15:00,52.8,50.0,29.96,NW,323,0.0,0.0,90,0.00,,CLR,1.76,VWS V14.01,2013-01-10 01:15:00,
2013-01-09 19:20:00,52.7,50.2,29.97,NW,323,0.0,0.0,91,0.00,,CLR,1.76,VWS V14.01,2013-01-10 01:20:00,
2013-01-09 19:25:00,52.7,50.2,29.97,NW,323,0.0,0.0,91,0.00,,CLR,1.76,VWS V14.01,2013-01-10 01:25:00,
2013-01-09 19:30:00,52.6,50.0,29.97,NW,323,0.0,0.0,91,0.00,,CLR,1.76,VWS V14.01,2013-01-10 01:30:00,
2013-01-09 19:35:00,52.4,50.2,29.97,NW,323,0.0,0.0,92,0.00,,,1.76,VWS V14.01,2013-01-10 01:35:00,
2013-01-09 19:40:00,52.6,50.6,29.97,NW,323,0.0,0.0,93,0.00,,,1.76,VWS V14.01,2013-01-10 01:40:00,
2013-01-09 19:45:00,52.7,50.7,29.97,NW,323,0.0,0.0,93,0.00,,,1.76,VWS V14.01,2013-01-10 01:45:00,
2013-01-09 19:50:00,53.0,51.0,29.98,NW,323,0.0,0.0,93,0.00,,,1.76,VWS V14.01,2013-01-10 01:50:00,
2013-01-09 19:55:00,53.3,51.3,29.98,NW,323,0.0,0.0,93,0.00,,,1.76,VWS V14.01,2013-01-10 01:55:00,
2013-01-09 20:00:00,53.6,51.9,29.98,NW,323,0.0,0.0,94,0.00,,,1.76,VWS V14.01,2013-01-10 02:00:00,
2013-01-09 20:05:00,54.0,52.3,29.99,NW,323,0.0,1.0,94,0.00,,,1.76,VWS V14.01,2013-01-10 02:05:00,
2013-01-09 20:10:00,54.2,52.5,29.99,NW,323,0.0,0.0,94,0.00,,OVC033,1.76,VWS V14.01,2013-01-10 02:10:00,
2013-01-09 20:15:00,54.2,52.5,29.99,NW,323,0.0,0.0,94,0.00,,OVC033,1.76,VWS V14.01,2013-01-10 02:15:00,
2013-01-09 20:20:00,54.2,52.5,29.98,NW,323,0.0,0.0,94,0.00,,OVC033,1.76,VWS V14.01,2013-01-10 02:20:00,
2013-01-09 20:25:00,54.0,52.3,29.98,NW,323,0.0,0.0,94,0.00,,OVC033,1.76,VWS V14.01,2013-01-10 02:25:00,
2013-01-09 20:30:00,53.9,52.2,29.98,NW,323,0.0,0.0,94,0.00,,OVC033,1.76,VWS V14.01,2013-01-10 02:30:00,
2013-01-09 20:35:00,53.7,52.0,29.99,NW,323,0.0,0.0,94,0.00,,OVC033,1.76,VWS V14.01,2013-01-10 02:35:00,
2013-01-09 20:40:00,53.4,51.7,29.99,NW,323,0.0,0.0,94,0.00,,OVC033,1.76,VWS V14.01,2013-01-10 02:40:00,
2013-01-09 20:45:00,53.1,51.4,29.99,NW,323,0.0,0.0,94,0.00,,OVC033,1.76,VWS V14.01,2013-01-10 02:45:00,
2013-01-09 20:50:00,52.8,51.1,29.99,NW,323,0.0,0.0,94,0.00,,OVC033,1.76,VWS V14.01,2013-01-10 02:50:00,
2013-01-09 20:55:00,52.6,50.9,29.99,NW,323,0.0,0.0,94,0.00,,OVC033,1.76,VWS V14.01,2013-01-10 02:55:00,
2013-01-09 21:00:00,52.3,50.6,29.99,NW,323,0.0,0.0,94,0.00,,OVC033,1.76,VWS V14.01,2013-01-10 03:00:00,
2013-01-09 21:05:00,52.1,50.4,30.00,NW,323,0.0,0.0,94,0.00,,BKN036,1.76,VWS V14.01,2013-01-10 03:05:00,
2013-01-09 21:10:00,51.8,50.1,30.00,NW,323,0.0,0.0,94,0.00,,BKN036,1.76,VWS V14.01,2013-01-10 03:10:00,
2013-01-09 21:15:00,51.5,49.8,30.00,NW,323,0.0,0.0,94,0.00,,BKN036,1.76,VWS V14.01,2013-01-10 03:15:00,
2013-01-09 21:20:00,51.5,49.8,30.00,NW,323,0.0,0.0,94,0.00,,,1.76,VWS V14.01,2013-01-10 03:20:00,
2013-01-09 21:25:00,51.5,49.8,30.00,NW,323,0.0,0.0,94,0.00,,,1.76,VWS V14.01,2013-01-10 03:25:00,
2013-01-09 21:30:00,51.8,50.4,30.00,NW,323,0.0,0.0,95,0.00,,,1.76,VWS V14.01,2013-01-10 03:30:00,
2013-01-09 21:35:00,52.0,50.3,30.01,NW,323,0.0,0.0,94,0.00,,,1.76,VWS V14.01,2013-01-10 03:35:00,
2013-01-09 21:40:00,52.0,50.3,30.01,NW,323,0.0,0.0,94,0.00,,,1.76,VWS V14.01,2013-01-10 03:40:00,
2013-01-09 21:45:00,52.0,50.3,30.01,NW,323,0.0,0.0,94,0.00,,,1.76,VWS V14.01,2013-01-10 03:45:00,
2013-01-09 21:50:00,52.1,50.7,30.03,NW,323,0.0,0.0,95,0.00,,,1.76,VWS V14.01,2013-01-10 03:50:00,
2013-01-09 21:55:00,52.6,51.2,30.03,NW,323,0.0,0.0,95,0.00,,,1.76,VWS V14.01,2013-01-10 03:55:00,
2013-01-09 22:00:00,53.1,51.7,30.03,NW,323,0.0,1.0,95,0.00,,,1.76,VWS V14.01,2013-01-10 04:00:00,
2013-01-09 22:05:00,53.4,52.0,30.03,NW,323,0.0,1.0,95,0.00,,,1.76,VWS V14.01,2013-01-10 04:05:00,
2013-01-09 22:10:00,53.4,52.0,30.03,NW,323,0.0,0.0,95,0.00,,,1.76,VWS V14.01,2013-01-10 04:10:00,
2013-01-09 22:15:00,53.1,51.7,30.03,NW,323,0.0,0.0,95,0.00,,,1.76,VWS V14.01,2013-01-10 04:15:00,
2013-01-09 22:20:00,52.8,51.4,30.02,NW,323,0.0,0.0,95,0.00,,,1.76,VWS V14.01,2013-01-10 04:20:00,
2013-01-09 22:25:00,52.6,51.2,30.02,NW,323,0.0,0.0,95,0.00,,,1.76,VWS V14.01,2013-01-10 04:25:00,
2013-01-09 22:30:00,52.1,50.7,30.02,NW,323,0.0,0.0,95,0.00,,,1.76,VWS V14.01,2013-01-10 04:30:00,
2013-01-09 22:35:00,51.7,50.0,30.01,NW,323,0.0,0.0,94,0.00,,SCT027,1.76,VWS V14.01,2013-01-10 04:35:00,
2013-01-09 22:40:00,51.4,50.0,30.01,NW,323,0.0,0.0,95,0.00,,SCT027,1.76,VWS V14.01,2013-01-10 04:40:00,
2013-01-09 22:45:00,50.8,49.1,30.01,NW,323,0.0,0.0,94,0.00,,SCT027,1.76,VWS V14.01,2013-01-10 04:45:00,
2013-01-09 22:50:00,50.2,48.5,30.01,NW,323,0.0,0.0,94,0.00,,SCT027,1.76,VWS V14.01,2013-01-10 04:50:00,
2013-01-09 22:55:00,49.9,48.2,30.01,NW,323,0.0,0.0,94,0.00,,SCT027,1.76,VWS V14.01,2013-01-10 04:55:00,
2013-01-09 23:00:00,49.9,48.5,30.01,NW,323,0.0,0.0,95,0.00,,SCT027,1.76,VWS V14.01,2013-01-10 05:00:00,
2013-01-09 23:02:00,49.9,48.5,30.01,NW,323,0.0,0.0,95,0.00,,CLR,1.76,VWS V14.01,2013-01-10 05:02:00,
2013-01-09 23:07:00,50.2,48.8,30.01,NW,323,0.0,0.0,95,0.00,,CLR,1.76,VWS V14.01,2013-01-10 05:07:00,
2013-01-09 23:10:00,49.9,48.5,30.01,NW,323,0.0,0.0,95,0.00,,CLR,1.76,VWS V14.01,2013-01-10 05:10:00,
2013-01-09 23:12:00,50.0,48.6,30.01,NW,323,0.0,0.0,95,0.00,,,1.76,VWS V14.01,2013-01-10 05:12:00,
2013-01-09 23:17:00,49.9,48.5,30.01,NW,323,0.0,0.0,95,0.00,,,1.76,VWS V14.01,2013-01-10 05:17:00,
2013-01-09 23:20:00,50.2,48.8,30.01,NW,323,0.0,0.0,95,0.00,,CLR,1.76,VWS V14.01,2013-01-10 05:20:00,
2013-01-09 23:22:00,49.6,48.2,30.01,NW,323,0.0,0.0,95,0.00,,,1.76,VWS V14.01,2013-01-10 05:22:00,
2013-01-09 23:27:00,49.1,47.5,30.01,NW,323,0.0,0.0,94,0.00,,,1.76,VWS V14.01,2013-01-10 05:27:00,
2013-01-09 23:30:00,49.9,48.5,30.01,NW,323,0.0,0.0,95,0.00,,CLR,1.76,VWS V14.01,2013-01-10 05:30:00,
2013-01-09 23:32:00,48.7,47.0,30.01,NW,323,0.0,0.0,94,0.00,,,1.76,VWS V14.01,2013-01-10 05:32:00,
2013-01-09 23:37:00,48.6,47.2,30.02,NW,323,0.0,0.0,95,0.00,,,1.76,VWS V14.01,2013-01-10 05:37:00,
2013-01-09 23:40:00,49.0,47.3,30.01,NW,323,0.0,0.0,94,0.00,,CLR,1.76,VWS V14.01,2013-01-10 05:40:00,
2013-01-09 23:42:00,48.3,46.9,30.02,NW,323,0.0,0.0,95,0.00,,,1.76,VWS V14.01,2013-01-10 05:42:00,
2013-01-09 23:47:00,48.3,46.9,30.02,NW,323,0.0,0.0,95,0.00,,,1.76,VWS V14.01,2013-01-10 05:47:00,
2013-01-09 23:50:00,48.4,47.0,30.02,NW,323,0.0,0.0,95,0.00,,CLR,1.76,VWS V14.01,2013-01-10 05:50:00,
2013-01-09 23:52:00,48.3,46.9,30.01,NW,323,0.0,0.0,95,0.00,,,0.00,VWS V14.01,2013-01-10 05:52:00,
2013-01-09 23:57:00,48.1,46.7,30.01,NW,323,0.0,0.0,95,0.00,,,0.00,VWS V14.01,2013-01-10 05:57:00,